IGO697M VIDP-VOML
Flight info
| Callsign | IGO697M |
|---|---|
| Flight time | N/A |
| Altitude | 38000 |
| Route | DUDUM6B DUDUM Q2 BBB/N0451F390 B211 MABTA Q13 IKATI W17 MML |
| Aircraft | A20N/M-SDE2E3FGHIRWXY/LB1 |
Departure
| Time | N/A |
|---|---|
| Airport | Indira Gandhi International Airport (VIDP) |
Arrival
| Time | 2026-04-23 20:20 |
|---|---|
| Airport | Mangaluru International Airport (VOML) |
| Time | Latitude | Longitude | Altitude | Speed | Heading |
|---|---|---|---|---|---|
| 2026-04-23 19:07 | 18.13938 | 73.11325 | 37029 ft | 418 kts | 172° |
| 2026-04-23 19:07 | 18.11109 | 73.12035 | 37030 ft | 417 kts | 172° |
| 2026-04-23 19:08 | 18.05432 | 73.13458 | 37036 ft | 418 kts | 172° |
| 2026-04-23 19:08 | 17.99824 | 73.14865 | 37043 ft | 418 kts | 172° |
| 2026-04-23 19:09 | 17.94132 | 73.16292 | 37051 ft | 417 kts | 173° |
| 2026-04-23 19:09 | 17.88536 | 73.17691 | 37052 ft | 416 kts | 173° |
| 2026-04-23 19:10 | 17.82901 | 73.19097 | 37052 ft | 415 kts | 173° |
| 2026-04-23 19:10 | 17.77185 | 73.20523 | 37049 ft | 415 kts | 173° |
| 2026-04-23 19:11 | 17.71176 | 73.22024 | 37053 ft | 414 kts | 173° |
| 2026-04-23 19:11 | 17.65562 | 73.23426 | 37061 ft | 414 kts | 173° |
| 2026-04-23 19:12 | 17.60556 | 73.24674 | 37060 ft | 414 kts | 173° |
| 2026-04-23 19:12 | 17.53728 | 73.26379 | 37063 ft | 414 kts | 173° |
| 2026-04-23 19:13 | 17.47722 | 73.27877 | 37053 ft | 413 kts | 173° |
| 2026-04-23 19:13 | 17.41768 | 73.29363 | 37056 ft | 411 kts | 173° |
| 2026-04-23 19:14 | 17.35871 | 73.30833 | 37061 ft | 411 kts | 173° |
| 2026-04-23 19:14 | 17.30093 | 73.32275 | 37060 ft | 410 kts | 173° |
| 2026-04-23 19:15 | 17.24143 | 73.33753 | 37065 ft | 411 kts | 173° |
| 2026-04-23 19:15 | 17.18207 | 73.35441 | 37062 ft | 413 kts | 168° |
| 2026-04-23 19:16 | 17.12348 | 73.37886 | 37050 ft | 419 kts | 162° |
| 2026-04-23 19:16 | 17.07096 | 73.40868 | 37048 ft | 426 kts | 155° |
| 2026-04-23 19:17 | 16.99334 | 73.46022 | 37053 ft | 425 kts | 155° |
| 2026-04-23 19:17 | 16.94034 | 73.49540 | 37063 ft | 424 kts | 155° |
| 2026-04-23 19:18 | 16.88968 | 73.52895 | 37067 ft | 424 kts | 155° |
| 2026-04-23 19:18 | 16.83709 | 73.56325 | 37080 ft | 422 kts | 158° |
| 2026-04-23 19:19 | 16.75637 | 73.60805 | 37094 ft | 418 kts | 160° |
| 2026-04-23 19:20 | 16.67713 | 73.65142 | 37102 ft | 419 kts | 160° |
| 2026-04-23 19:20 | 16.62468 | 73.68039 | 37098 ft | 418 kts | 160° |
| 2026-04-23 19:21 | 16.54649 | 73.72339 | 37075 ft | 417 kts | 160° |
| 2026-04-23 19:22 | 16.49478 | 73.75172 | 37065 ft | 417 kts | 160° |
| 2026-04-23 19:22 | 16.41526 | 73.79519 | 37068 ft | 416 kts | 160° |
| 2026-04-23 19:23 | 16.36080 | 73.82409 | 37077 ft | 414 kts | 162° |
| 2026-04-23 19:24 | 16.28160 | 73.86396 | 37094 ft | 413 kts | 162° |
| 2026-04-23 19:24 | 16.20173 | 73.90441 | 37112 ft | 413 kts | 162° |
| 2026-04-23 19:25 | 16.09447 | 73.95835 | 37119 ft | 413 kts | 162° |
| 2026-04-23 19:26 | 16.01227 | 73.99973 | 37117 ft | 413 kts | 162° |
| 2026-04-23 19:27 | 15.88125 | 74.06561 | 37111 ft | 413 kts | 162° |
| 2026-04-23 19:28 | 15.77562 | 74.11854 | 37111 ft | 412 kts | 162° |
| 2026-04-23 19:29 | 15.69726 | 74.15784 | 37122 ft | 412 kts | 162° |
| 2026-04-23 19:30 | 15.61852 | 74.19734 | 37131 ft | 413 kts | 162° |
| 2026-04-23 19:31 | 15.53998 | 74.23669 | 37137 ft | 414 kts | 162° |
| 2026-04-23 19:31 | 15.48709 | 74.26317 | 37142 ft | 413 kts | 162° |
| 2026-04-23 19:32 | 15.43479 | 74.28936 | 37138 ft | 414 kts | 162° |
| 2026-04-23 19:32 | 15.38241 | 74.31557 | 37124 ft | 414 kts | 162° |
| 2026-04-23 19:33 | 15.32771 | 74.34294 | 37123 ft | 414 kts | 162° |
| 2026-04-23 19:33 | 15.24740 | 74.38307 | 37113 ft | 414 kts | 162° |
| 2026-04-23 19:34 | 15.19321 | 74.41019 | 37111 ft | 413 kts | 162° |
| 2026-04-23 19:35 | 15.11338 | 74.45006 | 37113 ft | 413 kts | 162° |
| 2026-04-23 19:35 | 15.06066 | 74.47642 | 37116 ft | 412 kts | 162° |
| 2026-04-23 19:36 | 15.00821 | 74.50272 | 37125 ft | 413 kts | 161° |
| 2026-04-23 19:36 | 14.95583 | 74.52902 | 37123 ft | 414 kts | 161° |
| 2026-04-23 19:37 | 14.90247 | 74.55582 | 37101 ft | 414 kts | 162° |
| 2026-04-23 19:37 | 14.85061 | 74.58178 | 37082 ft | 413 kts | 161° |
| 2026-04-23 19:38 | 14.79732 | 74.60847 | 37074 ft | 413 kts | 161° |
| 2026-04-23 19:38 | 14.74531 | 74.63456 | 37069 ft | 414 kts | 162° |
| 2026-04-23 19:39 | 14.69324 | 74.66074 | 37069 ft | 413 kts | 162° |
| 2026-04-23 19:39 | 14.64064 | 74.68739 | 37076 ft | 412 kts | 162° |
| 2026-04-23 19:40 | 14.58775 | 74.71401 | 37089 ft | 412 kts | 162° |
| 2026-04-23 19:40 | 14.53458 | 74.74062 | 37101 ft | 412 kts | 162° |
| 2026-04-23 19:41 | 14.47942 | 74.76232 | 37111 ft | 400 kts | 173° |
| 2026-04-23 19:41 | 14.42267 | 74.77048 | 37103 ft | 393 kts | 181° |
| 2026-04-23 19:42 | 14.36435 | 74.77506 | 37098 ft | 393 kts | 182° |
| 2026-04-23 19:42 | 14.30701 | 74.77953 | 37089 ft | 393 kts | 182° |
| 2026-04-23 19:43 | 14.24752 | 74.78418 | 37073 ft | 394 kts | 182° |
| 2026-04-23 19:43 | 14.18997 | 74.78867 | 37078 ft | 394 kts | 182° |
| 2026-04-23 19:44 | 14.13255 | 74.79318 | 37095 ft | 394 kts | 182° |
| 2026-04-23 19:44 | 14.07498 | 74.79767 | 37107 ft | 393 kts | 182° |
| 2026-04-23 19:45 | 14.01767 | 74.80215 | 37125 ft | 393 kts | 181° |
| 2026-04-23 19:45 | 13.96171 | 74.80653 | 37126 ft | 393 kts | 181° |
| 2026-04-23 19:46 | 13.90476 | 74.81097 | 37113 ft | 393 kts | 181° |
| 2026-04-23 19:46 | 13.85004 | 74.81527 | 37098 ft | 393 kts | 181° |
| 2026-04-23 19:47 | 13.79337 | 74.81969 | 37080 ft | 394 kts | 181° |
| 2026-04-23 19:47 | 13.73811 | 74.82401 | 37066 ft | 395 kts | 181° |
| 2026-04-23 19:48 | 13.68171 | 74.82841 | 37059 ft | 396 kts | 181° |
| 2026-04-23 19:48 | 13.62509 | 74.83281 | 37057 ft | 396 kts | 181° |
| 2026-04-23 19:49 | 13.56821 | 74.83726 | 37055 ft | 396 kts | 181° |
| 2026-04-23 19:49 | 13.51217 | 74.84162 | 37052 ft | 395 kts | 181° |
| 2026-04-23 19:50 | 13.45638 | 74.84596 | 37044 ft | 396 kts | 181° |
| 2026-04-23 19:50 | 13.40037 | 74.85034 | 37043 ft | 396 kts | 181° |
| 2026-04-23 19:51 | 13.34470 | 74.85468 | 37044 ft | 395 kts | 181° |
| 2026-04-23 19:51 | 13.28924 | 74.85902 | 37043 ft | 397 kts | 181° |
| 2026-04-23 19:52 | 13.23358 | 74.86336 | 37051 ft | 397 kts | 181° |
| 2026-04-23 19:52 | 13.17789 | 74.86948 | 37038 ft | 405 kts | 171° |
| 2026-04-23 19:52 | 13.15089 | 74.88049 | 37050 ft | 417 kts | 157° |
| 2026-04-23 19:53 | 13.12656 | 74.89867 | 37050 ft | 429 kts | 143° |
| 2026-04-23 19:53 | 13.10720 | 74.92232 | 37045 ft | 443 kts | 129° |
| 2026-04-23 19:53 | 13.09206 | 74.95036 | 37052 ft | 449 kts | 123° |
| 2026-04-23 19:54 | 13.06694 | 75.00974 | 37049 ft | 450 kts | 123° |
| 2026-04-23 19:54 | 13.05105 | 75.03683 | 37046 ft | 437 kts | 135° |
| 2026-04-23 19:54 | 13.03031 | 75.05897 | 37044 ft | 416 kts | 149° |
| 2026-04-23 19:54 | 13.00656 | 75.07420 | 37036 ft | 386 kts | 164° |
| 2026-04-23 19:55 | 12.98143 | 75.08143 | 37024 ft | 356 kts | 181° |
| 2026-04-23 19:55 | 12.95749 | 75.08001 | 37026 ft | 340 kts | 199° |
| 2026-04-23 19:55 | 12.93594 | 75.07008 | 37029 ft | 333 kts | 218° |
| 2026-04-23 19:55 | 12.91958 | 75.05261 | 37032 ft | 335 kts | 237° |
| 2026-04-23 19:56 | 12.91068 | 75.02944 | 37030 ft | 344 kts | 256° |
| 2026-04-23 19:56 | 12.91074 | 75.00461 | 37028 ft | 358 kts | 275° |
| 2026-04-23 19:56 | 12.91971 | 74.98006 | 37029 ft | 376 kts | 294° |
| 2026-04-23 19:56 | 12.93689 | 74.95901 | 37034 ft | 393 kts | 313° |
| 2026-04-23 19:57 | 12.96068 | 74.94188 | 37043 ft | 400 kts | 316° |
| 2026-04-23 19:57 | 12.98128 | 74.92249 | 37031 ft | 385 kts | 298° |
| 2026-04-23 19:57 | 12.99427 | 74.89893 | 37037 ft | 367 kts | 281° |
| 2026-04-23 19:57 | 12.99894 | 74.87358 | 37040 ft | 352 kts | 263° |
| 2026-04-23 19:58 | 12.99492 | 74.84851 | 37039 ft | 340 kts | 244° |
| 2026-04-23 19:58 | 12.97475 | 74.80288 | 37025 ft | 346 kts | 255° |
| 2026-04-23 19:59 | 12.96983 | 74.75221 | 37032 ft | 351 kts | 261° |
| 2026-04-23 19:59 | 12.96700 | 74.70125 | 37035 ft | 351 kts | 261° |
| 2026-04-23 20:00 | 12.96434 | 74.65002 | 37036 ft | 351 kts | 261° |
| 2026-04-23 20:00 | 12.96171 | 74.59950 | 37037 ft | 351 kts | 261° |
| 2026-04-23 20:01 | 12.95899 | 74.54926 | 37032 ft | 350 kts | 261° |
| 2026-04-23 20:01 | 12.95614 | 74.49786 | 37033 ft | 350 kts | 261° |
| 2026-04-23 20:02 | 12.95319 | 74.44662 | 37035 ft | 350 kts | 261° |
| 2026-04-23 20:02 | 12.95026 | 74.39507 | 37027 ft | 350 kts | 261° |
| 2026-04-23 20:03 | 12.94772 | 74.35051 | 36429 ft | 346 kts | 261° |
| 2026-04-23 20:03 | 12.94628 | 74.32399 | 35154 ft | 353 kts | 261° |
| 2026-04-23 20:03 | 12.94498 | 74.29777 | 33739 ft | 361 kts | 261° |
| 2026-04-23 20:03 | 12.94368 | 74.27032 | 32284 ft | 368 kts | 261° |
| 2026-04-23 20:04 | 12.94227 | 74.24242 | 31124 ft | 368 kts | 261° |
| 2026-04-23 20:04 | 12.93879 | 74.21561 | 30289 ft | 355 kts | 251° |
| 2026-04-23 20:04 | 12.93062 | 74.19024 | 29488 ft | 343 kts | 243° |
| 2026-04-23 20:04 | 12.91952 | 74.16836 | 28668 ft | 336 kts | 236° |
| 2026-04-23 20:05 | 12.90564 | 74.14882 | 27834 ft | 332 kts | 229° |
| 2026-04-23 20:05 | 12.88891 | 74.13141 | 26922 ft | 331 kts | 221° |
| 2026-04-23 20:05 | 12.86938 | 74.11649 | 25979 ft | 332 kts | 213° |
| 2026-04-23 20:05 | 12.84763 | 74.10462 | 25061 ft | 332 kts | 205° |
| 2026-04-23 20:06 | 12.82308 | 74.09799 | 24110 ft | 336 kts | 184° |
| 2026-04-23 20:06 | 12.79705 | 74.10194 | 23243 ft | 340 kts | 162° |
| 2026-04-23 20:06 | 12.77513 | 74.11488 | 22367 ft | 345 kts | 140° |
| 2026-04-23 20:06 | 12.75919 | 74.13535 | 21550 ft | 347 kts | 118° |
| 2026-04-23 20:07 | 12.75164 | 74.16094 | 20793 ft | 345 kts | 95° |
| 2026-04-23 20:07 | 12.75382 | 74.18677 | 20074 ft | 341 kts | 72° |
| 2026-04-23 20:07 | 12.76472 | 74.20959 | 19350 ft | 335 kts | 51° |
| 2026-04-23 20:07 | 12.78273 | 74.22674 | 18656 ft | 328 kts | 30° |
| 2026-04-23 20:08 | 12.80510 | 74.23628 | 17946 ft | 321 kts | 9° |
| 2026-04-23 20:08 | 12.82760 | 74.23790 | 17339 ft | 323 kts | 351° |
| 2026-04-23 20:08 | 12.85014 | 74.23108 | 16912 ft | 324 kts | 330° |
| 2026-04-23 20:08 | 12.87045 | 74.21832 | 16746 ft | 306 kts | 332° |
| 2026-04-23 20:09 | 12.89268 | 74.21195 | 16602 ft | 295 kts | 360° |
| 2026-04-23 20:09 | 12.91343 | 74.21655 | 16416 ft | 286 kts | 28° |
| 2026-04-23 20:09 | 12.92886 | 74.22990 | 16190 ft | 278 kts | 57° |
| 2026-04-23 20:09 | 12.93596 | 74.24965 | 15898 ft | 272 kts | 88° |
| 2026-04-23 20:10 | 12.93525 | 74.26354 | 15722 ft | 269 kts | 96° |
| 2026-04-23 20:10 | 12.93145 | 74.28957 | 15162 ft | 273 kts | 99° |
| 2026-04-23 20:10 | 12.92718 | 74.31004 | 14828 ft | 299 kts | 102° |
| 2026-04-23 20:10 | 12.92125 | 74.33304 | 14390 ft | 312 kts | 104° |
| 2026-04-23 20:11 | 12.91448 | 74.35525 | 13281 ft | 309 kts | 107° |
| 2026-04-23 20:11 | 12.90668 | 74.37663 | 12890 ft | 297 kts | 109° |
| 2026-04-23 20:11 | 12.89830 | 74.39661 | 12511 ft | 294 kts | 112° |
| 2026-04-23 20:11 | 12.88898 | 74.41637 | 12138 ft | 292 kts | 114° |
| 2026-04-23 20:12 | 12.87912 | 74.43516 | 11768 ft | 290 kts | 116° |
| 2026-04-23 20:12 | 12.86846 | 74.45356 | 11205 ft | 289 kts | 119° |
| 2026-04-23 20:12 | 12.85841 | 74.47157 | 10451 ft | 282 kts | 109° |
| 2026-04-23 20:12 | 12.85364 | 74.49134 | 9585 ft | 272 kts | 92° |
| 2026-04-23 20:13 | 12.85533 | 74.51134 | 8728 ft | 269 kts | 74° |
| 2026-04-23 20:13 | 12.86058 | 74.53015 | 8067 ft | 264 kts | 77° |
| 2026-04-23 20:13 | 12.86459 | 74.54944 | 7761 ft | 266 kts | 77° |
| 2026-04-23 20:13 | 12.86881 | 74.56901 | 7328 ft | 262 kts | 76° |
| 2026-04-23 20:14 | 12.87318 | 74.58865 | 6606 ft | 268 kts | 75° |
| 2026-04-23 20:14 | 12.87758 | 74.60787 | 5686 ft | 270 kts | 75° |
| 2026-04-23 20:14 | 12.88206 | 74.62684 | 4793 ft | 269 kts | 74° |
| 2026-04-23 20:14 | 12.88670 | 74.64587 | 4314 ft | 265 kts | 74° |
| 2026-04-23 20:15 | 12.89120 | 74.66396 | 4044 ft | 258 kts | 74° |
| 2026-04-23 20:15 | 12.89574 | 74.68204 | 3280 ft | 267 kts | 74° |
| 2026-04-23 20:15 | 12.90021 | 74.70013 | 2866 ft | 254 kts | 75° |
| 2026-04-23 20:15 | 12.90435 | 74.71777 | 2918 ft | 242 kts | 75° |
| 2026-04-23 20:16 | 12.90766 | 74.73403 | 2853 ft | 227 kts | 85° |
| 2026-04-23 20:16 | 12.90690 | 74.74958 | 2660 ft | 209 kts | 98° |
| 2026-04-23 20:16 | 12.90368 | 74.76366 | 2460 ft | 191 kts | 105° |
| 2026-04-23 20:16 | 12.90164 | 74.77629 | 2389 ft | 166 kts | 91° |
| 2026-04-23 20:17 | 12.90112 | 74.78786 | 2054 ft | 159 kts | 92° |
| 2026-04-23 20:17 | 12.90020 | 74.79906 | 1637 ft | 158 kts | 89° |
| 2026-04-23 20:17 | 12.90427 | 74.80887 | 1451 ft | 148 kts | 51° |
| 2026-04-23 20:17 | 12.91126 | 74.81689 | 1431 ft | 151 kts | 47° |
| 2026-04-23 20:18 | 12.91806 | 74.82516 | 1218 ft | 151 kts | 55° |
| 2026-04-23 20:18 | 12.92346 | 74.83442 | 950 ft | 150 kts | 60° |
| 2026-04-23 20:18 | 12.92859 | 74.84370 | 788 ft | 150 kts | 60° |
| 2026-04-23 20:18 | 12.93399 | 74.85303 | 651 ft | 150 kts | 58° |
| 2026-04-23 20:19 | 12.93958 | 74.86203 | 572 ft | 151 kts | 57° |
| 2026-04-23 20:19 | 12.94516 | 74.87080 | 433 ft | 142 kts | 58° |
| 2026-04-23 20:19 | 12.95030 | 74.87955 | 299 ft | 142 kts | 59° |
| 2026-04-23 20:19 | 12.95510 | 74.88774 | 288 ft | 116 kts | 59° |
| 2026-04-23 20:20 | 12.95870 | 74.89369 | 322 ft | 66 kts | 58° |
| 2026-04-23 20:20 | 12.96052 | 74.89553 | 308 ft | 22 kts | 17° |
| 2026-04-23 20:20 | 12.96183 | 74.89553 | 305 ft | 13 kts | 297° |
| 2026-04-23 20:20 | 12.96159 | 74.89513 | 309 ft | 2 kts | 235° |
| 2026-04-23 20:21 | 12.96158 | 74.89513 | 309 ft | 0 kts | 247° |
| 2026-04-23 20:21 | 12.96154 | 74.89498 | 311 ft | 6 kts | 266° |
| 2026-04-23 20:21 | 12.96163 | 74.89410 | 317 ft | 16 kts | 276° |
| 2026-04-23 20:21 | 12.96176 | 74.89288 | 325 ft | 15 kts | 272° |
| 2026-04-23 20:22 | 12.96177 | 74.89192 | 330 ft | 11 kts | 270° |
| 2026-04-23 20:22 | 12.96201 | 74.89131 | 332 ft | 9 kts | 333° |
| 2026-04-23 20:22 | 12.96247 | 74.89088 | 332 ft | 8 kts | 285° |
| 2026-04-23 20:22 | 12.96229 | 74.89048 | 332 ft | 7 kts | 191° |
| 2026-04-23 20:23 | 12.96176 | 74.89038 | 332 ft | 8 kts | 190° |
| 2026-04-23 20:23 | 12.96111 | 74.89028 | 331 ft | 10 kts | 181° |
| 2026-04-23 20:23 | 12.96029 | 74.89029 | 329 ft | 12 kts | 180° |
| 2026-04-23 20:23 | 12.95932 | 74.89029 | 327 ft | 15 kts | 180° |
| 2026-04-23 20:24 | 12.95814 | 74.89030 | 322 ft | 17 kts | 179° |
| 2026-04-23 20:24 | 12.95681 | 74.88995 | 311 ft | 22 kts | 223° |
| 2026-04-23 20:24 | 12.95580 | 74.88858 | 297 ft | 23 kts | 238° |
| 2026-04-23 20:24 | 12.95496 | 74.88714 | 284 ft | 23 kts | 239° |
| 2026-04-23 20:25 | 12.95415 | 74.88572 | 274 ft | 23 kts | 237° |
| 2026-04-23 20:25 | 12.95329 | 74.88431 | 272 ft | 23 kts | 239° |
| 2026-04-23 20:25 | 12.95239 | 74.88292 | 267 ft | 22 kts | 235° |
| 2026-04-23 20:25 | 12.95158 | 74.88163 | 269 ft | 20 kts | 238° |
| 2026-04-23 20:26 | 12.95084 | 74.88042 | 268 ft | 18 kts | 238° |
| 2026-04-23 20:26 | 12.95022 | 74.87936 | 273 ft | 15 kts | 241° |
| 2026-04-23 20:26 | 12.94975 | 74.87858 | 277 ft | 11 kts | 237° |
| 2026-04-23 20:26 | 12.94931 | 74.87785 | 277 ft | 12 kts | 239° |
| 2026-04-23 20:27 | 12.94892 | 74.87704 | 278 ft | 12 kts | 260° |
| 2026-04-23 20:27 | 12.94934 | 74.87639 | 278 ft | 11 kts | 319° |
| 2026-04-23 20:27 | 12.94997 | 74.87587 | 278 ft | 11 kts | 316° |
| 2026-04-23 20:27 | 12.95006 | 74.87504 | 278 ft | 12 kts | 243° |
| 2026-04-23 20:28 | 12.94966 | 74.87431 | 275 ft | 7 kts | 264° |
| 2026-04-23 20:28 | 12.94971 | 74.87421 | 275 ft | 0 kts | 299° |
| 2026-04-23 20:28 | 12.94967 | 74.87414 | 275 ft | 2 kts | 235° |
| 2026-04-23 20:28 | 12.94951 | 74.87383 | 273 ft | 6 kts | 265° |
| 2026-04-23 20:29 | 12.94962 | 74.87365 | 273 ft | 0 kts | 352° |
| 2026-04-23 20:29 | 12.94961 | 74.87365 | 273 ft | 0 kts | 0° |
| 2026-04-23 20:29 | 12.94956 | 74.87366 | 273 ft | 0 kts | 350° |
| 2026-04-23 20:29 | 12.94957 | 74.87365 | 273 ft | 0 kts | 350° |
| 2026-04-23 20:30 | 12.94964 | 74.87363 | 273 ft | 1 kts | 343° |
| 2026-04-23 20:30 | 12.94985 | 74.87354 | 273 ft | 0 kts | 332° |
| 2026-04-23 20:30 | 12.94988 | 74.87352 | 273 ft | 0 kts | 333° |
| 2026-04-23 20:31 | 12.94991 | 74.87350 | 273 ft | 0 kts | 333° |